Harrah, Oklahoma
Current Conditions -  °F | °C
As of 8:58 AM on Friday 19 Dec 2014 (Local Time) from KTIK Reporting Station
Light Rain Light Rain  
Wind Chill: 33°   Ceiling: 300
Heat Index: 37°   Visibility: 4mi
Dew Point: 36°   Wind: 6mph
Humidity: 97%   Direction: 20°NNE
Pressure: 30.22"   Gusts: NA
Location:  35.49°N, 97.16°W
Report Text: KTIK 191458Z AUTO 02005KT 4SM -RA BR OVC003 03/02 A3022 RMK AO2 RAB1455DZE1455 SLPNO P0000 60000 T00290024 50008
Loading
Personal Weather Stations






























Interactive Weather Map New forecast layout! Learn more

10-Day Weather Forecast

Advertisements
Track Severe Weather on mobile